Terminal Aerodrome Forecast
Issued by NWS

Current Version | Previous Version | Text Only | Print | Product List | Glossary Off
Versions: 1 2 3 4 5 6 7 8 9 10 11 12 13 14 15 16 17 18 19 20 21 22 23 24 25 26

355
FTUS41 KPBZ 220532
TAFHLG
TAF
KHLG 220532Z 2206/2306 11005KT P6SM BKN080
      TEMPO 2208/2212 5SM BR
     FM221300 11004KT P6SM BKN150
     FM222200 09010KT P6SM VCSH BKN050
     FM230400 08012G20KT 4SM -SHRA BR OVC030=

USA.gov is the U.S. government's official web portal to all federal, state and local government web resources and services.